createdAt,value
2024-02-14T00:02:27.589Z,5.68
2024-02-14T00:04:56.401Z,5.45
2024-02-14T00:07:23.988Z,4.65
2024-02-14T00:09:51.546Z,4.90
2024-02-14T00:12:19.026Z,5.35
2024-02-14T00:14:46.507Z,6.03
2024-02-14T00:17:14.074Z,4.97
2024-02-14T00:19:41.749Z,5.47
2024-02-14T00:22:10.687Z,3.83
2024-02-14T00:24:38.120Z,3.50
2024-02-14T00:27:05.800Z,6.18
2024-02-14T00:29:35.157Z,3.92
2024-02-14T00:32:02.788Z,6.63
2024-02-14T00:34:30.402Z,5.68
2024-02-14T00:36:57.996Z,4.20
2024-02-14T00:39:29.831Z,3.70
2024-02-14T00:41:57.574Z,5.43
2024-02-14T00:44:25.137Z,4.72
2024-02-14T00:46:57.416Z,4.03
2024-02-14T00:49:25.243Z,4.20
2024-02-14T00:51:52.818Z,6.10
2024-02-14T00:54:20.555Z,4.85
2024-02-14T00:56:49.507Z,3.28
2024-02-14T00:59:17.857Z,9.43
2024-02-14T01:01:45.734Z,4.65
2024-02-14T01:04:13.399Z,5.50
2024-02-14T01:06:40.875Z,4.03
2024-02-14T01:09:09.721Z,3.30
2024-02-14T01:11:40.274Z,5.47
2024-02-14T01:14:09.422Z,4.25
2024-02-14T01:16:43.595Z,4.90
2024-02-14T01:19:11.224Z,3.00
2024-02-14T01:21:38.714Z,5.00
2024-02-14T01:24:07.175Z,3.92
2024-02-14T01:26:34.766Z,2.97
2024-02-14T01:29:02.317Z,3.45
2024-02-14T01:31:31.307Z,5.07
2024-02-14T01:34:03.123Z,6.05
2024-02-14T01:36:31.112Z,6.85
2024-02-14T01:38:58.656Z,4.95
2024-02-14T01:41:26.199Z,6.95
2024-02-14T01:43:53.754Z,3.17
2024-02-14T01:46:24.049Z,5.40
2024-02-14T01:48:53.012Z,5.78
2024-02-14T01:51:22.232Z,5.30
2024-02-14T01:53:49.721Z,7.63
2024-02-14T01:56:17.662Z,5.70
2024-02-14T01:58:46.017Z,5.05
2024-02-14T02:01:13.601Z,5.57
2024-02-14T02:03:41.582Z,5.03
2024-02-14T02:06:10.776Z,3.70
2024-02-14T02:08:38.510Z,4.85
2024-02-14T02:11:07.632Z,5.25
2024-02-14T02:13:35.106Z,7.13
2024-02-14T02:16:06.068Z,5.80
2024-02-14T02:18:33.983Z,5.15
2024-02-14T02:21:04.954Z,4.43
2024-02-14T02:23:33.822Z,5.40
2024-02-14T02:26:01.389Z,7.70
2024-02-14T02:28:28.858Z,6.45
2024-02-14T02:30:56.657Z,5.15
2024-02-14T02:33:24.324Z,5.03
2024-02-14T02:35:52.418Z,8.00
2024-02-14T02:38:21.085Z,4.18
2024-02-14T02:40:50.040Z,3.65
2024-02-14T02:43:17.562Z,4.10
2024-02-14T02:45:45.505Z,6.00
2024-02-14T02:48:13.586Z,4.68
2024-02-14T02:50:41.263Z,4.07
2024-02-14T02:53:08.856Z,3.92
2024-02-14T02:55:38.153Z,5.00
2024-02-14T02:58:07.962Z,3.75
2024-02-14T03:00:35.550Z,5.55
2024-02-14T03:03:03.762Z,3.33
2024-02-14T03:05:34.794Z,4.72
2024-02-14T03:08:02.370Z,4.28
2024-02-14T03:10:30.737Z,4.38
2024-02-14T03:12:58.226Z,5.93
2024-02-14T03:15:27.430Z,5.20
2024-02-14T03:17:55.016Z,4.53
2024-02-14T03:20:22.623Z,3.97
2024-02-14T03:22:50.116Z,5.68
2024-02-14T03:25:18.737Z,3.60
2024-02-14T03:27:48.247Z,5.20
2024-02-14T03:30:17.413Z,3.80
2024-02-14T03:32:48.068Z,6.10
2024-02-14T03:35:15.776Z,7.03
2024-02-14T03:37:43.619Z,6.45
2024-02-14T03:40:12.009Z,5.45
2024-02-14T03:42:40.974Z,3.78
2024-02-14T03:45:09.446Z,5.15
2024-02-14T03:47:40.597Z,6.20
2024-02-14T03:50:10.382Z,5.72
2024-02-14T03:52:37.872Z,3.58
2024-02-14T03:55:05.747Z,4.97
2024-02-14T03:57:34.256Z,5.40
2024-02-14T04:00:02.801Z,3.28
2024-02-14T04:02:40.699Z,2.85
2024-02-14T04:05:10.522Z,6.35
2024-02-14T04:07:38.735Z,4.72
2024-02-14T04:10:07.019Z,3.85
2024-02-14T04:12:34.794Z,5.35
2024-02-14T04:15:02.388Z,7.55
2024-02-14T04:17:29.971Z,4.00
2024-02-14T04:19:57.509Z,4.85
2024-02-14T04:22:26.432Z,5.55
2024-02-14T04:24:53.897Z,13.75
2024-02-14T04:27:20.438Z,4.70
2024-02-14T04:29:48.578Z,4.20
2024-02-14T04:32:16.263Z,5.53
2024-02-14T04:34:45.191Z,4.68
2024-02-14T04:37:14.916Z,4.07
2024-02-14T04:39:43.961Z,4.97
2024-02-14T04:42:11.736Z,5.65
2024-02-14T04:44:42.179Z,6.53
2024-02-14T04:47:10.728Z,4.72
2024-02-14T04:49:38.731Z,4.60
2024-02-14T04:52:06.664Z,6.05
2024-02-14T04:54:34.080Z,6.35
2024-02-14T04:57:05.048Z,5.60
2024-02-14T04:59:32.893Z,5.80
2024-02-14T05:02:00.759Z,4.78
2024-02-14T05:04:28.852Z,6.70
2024-02-14T05:06:59.146Z,5.80
2024-02-14T05:09:27.357Z,8.23
2024-02-14T05:11:54.929Z,4.95
2024-02-14T05:14:24.449Z,5.70
2024-02-14T05:16:54.372Z,7.40
2024-02-14T05:19:23.006Z,6.88
2024-02-14T05:21:51.248Z,5.20
2024-02-14T05:24:18.823Z,7.60
2024-02-14T05:26:46.382Z,6.70
2024-02-14T05:29:14.994Z,6.50
2024-02-14T05:31:47.365Z,5.68
2024-02-14T05:34:15.268Z,4.70
2024-02-14T05:36:43.993Z,9.88
2024-02-14T05:39:11.972Z,6.07
2024-02-14T05:41:39.623Z,5.93
2024-02-14T05:44:07.943Z,6.68
2024-02-14T05:46:35.485Z,5.85
2024-02-14T05:49:04.840Z,5.50
2024-02-14T05:51:32.861Z,7.63
2024-02-14T05:54:01.093Z,6.05
2024-02-14T05:56:28.732Z,6.05
2024-02-14T05:58:56.497Z,6.28
2024-02-14T06:01:24.406Z,7.88
2024-02-14T06:03:52.219Z,5.80
2024-02-14T06:06:21.371Z,4.78
2024-02-14T06:08:58.708Z,5.07
2024-02-14T06:11:26.288Z,5.32
2024-02-14T06:13:54.807Z,5.50
2024-02-14T06:16:22.438Z,5.88
2024-02-14T06:18:52.289Z,6.90
2024-02-14T06:21:23.674Z,5.30
2024-02-14T06:23:51.508Z,4.72
2024-02-14T06:26:19.695Z,5.78
2024-02-14T06:28:47.599Z,4.82
2024-02-14T06:31:17.882Z,4.20
2024-02-14T06:33:45.730Z,6.03
2024-02-14T06:36:17.588Z,7.55
2024-02-14T06:38:47.972Z,5.75
2024-02-14T06:41:15.596Z,5.53
2024-02-14T06:43:43.293Z,5.28
2024-02-14T06:46:10.784Z,4.82
2024-02-14T06:48:41.839Z,5.40
2024-02-14T06:51:09.942Z,6.15
2024-02-14T06:53:37.534Z,7.53
2024-02-14T06:56:10.072Z,5.53
2024-02-14T06:58:37.604Z,7.53
2024-02-14T07:01:05.455Z,21.67
2024-02-14T07:03:33.110Z,24.77
2024-02-14T07:06:01.048Z,15.60
2024-02-14T07:08:29.706Z,19.92
2024-02-14T07:10:57.750Z,14.15
2024-02-14T07:13:26.802Z,16.25
2024-02-14T07:15:54.772Z,11.00
2024-02-14T07:18:22.471Z,10.13
2024-02-14T07:20:50.124Z,10.77
2024-02-14T07:23:17.694Z,8.63
2024-02-14T07:25:45.990Z,8.05
2024-02-14T07:28:13.507Z,6.32
2024-02-14T07:30:42.639Z,8.57
2024-02-14T07:33:10.760Z,6.72
2024-02-14T07:35:38.660Z,6.68
2024-02-14T07:38:06.415Z,5.65
2024-02-14T07:40:34.628Z,6.72
2024-02-14T07:43:02.255Z,7.22
2024-02-14T07:45:29.863Z,7.43
2024-02-14T07:47:58.917Z,5.25
2024-02-14T07:50:29.091Z,7.68
2024-02-14T07:52:56.708Z,6.85
2024-02-14T07:55:25.239Z,6.10
2024-02-14T07:57:53.704Z,6.80
2024-02-14T08:00:24.630Z,6.15
2024-02-14T08:02:55.187Z,6.85
2024-02-14T08:05:24.479Z,6.03
2024-02-14T08:07:51.973Z,5.75
2024-02-14T08:10:19.810Z,5.97
2024-02-14T08:12:48.446Z,6.90
2024-02-14T08:15:16.136Z,7.32
2024-02-14T08:17:46.760Z,5.85
2024-02-14T08:20:15.259Z,6.22
2024-02-14T08:22:44.290Z,6.15
2024-02-14T08:25:12.820Z,7.10
2024-02-14T08:27:43.278Z,6.85
2024-02-14T08:30:12.896Z,6.45
2024-02-14T08:32:43.325Z,5.60
2024-02-14T08:35:15.079Z,7.90
2024-02-14T08:37:46.090Z,6.72
2024-02-14T08:40:13.917Z,6.75
2024-02-14T08:42:41.528Z,6.60
2024-02-14T08:45:10.571Z,5.82
2024-02-14T08:47:38.760Z,6.55
2024-02-14T08:50:09.910Z,6.38
2024-02-14T08:52:38.800Z,5.70
2024-02-14T08:55:11.989Z,8.48
2024-02-14T08:57:39.822Z,6.07
2024-02-14T09:00:08.836Z,5.95
2024-02-14T09:02:36.877Z,8.90
2024-02-14T09:05:06.887Z,6.53
2024-02-14T09:07:35.105Z,7.40
2024-02-14T09:10:02.582Z,5.80
2024-02-14T09:12:31.772Z,5.75
2024-02-14T09:15:00.303Z,5.57
2024-02-14T09:17:28.449Z,5.10
2024-02-14T09:19:56.019Z,5.63
2024-02-14T09:22:23.658Z,6.82
2024-02-14T09:24:53.440Z,6.25
2024-02-14T09:27:21.927Z,4.47
2024-02-14T09:29:51.001Z,6.60
2024-02-14T09:32:18.612Z,5.72
2024-02-14T09:34:47.040Z,6.70
2024-02-14T09:37:14.799Z,7.03
2024-02-14T09:39:44.457Z,6.82
2024-02-14T09:42:15.256Z,6.35
2024-02-14T09:44:42.954Z,5.45
2024-02-14T09:47:12.262Z,4.38
2024-02-14T09:49:40.882Z,4.88
2024-02-14T09:52:10.767Z,5.15
2024-02-14T09:54:40.115Z,5.82
2024-02-14T09:57:08.289Z,4.85
2024-02-14T09:59:36.010Z,3.80
2024-02-14T10:02:03.506Z,4.57
2024-02-14T10:04:32.547Z,4.30
2024-02-14T10:07:00.107Z,2.70
2024-02-14T10:09:27.767Z,3.50
2024-02-14T10:11:55.368Z,3.22
2024-02-14T10:14:24.905Z,3.38
2024-02-14T10:16:52.529Z,3.35
2024-02-14T10:19:20.522Z,4.05
2024-02-14T10:21:59.887Z,3.42
2024-02-14T10:24:27.724Z,3.25
2024-02-14T10:26:55.424Z,5.05
2024-02-14T10:29:23.017Z,3.78
2024-02-14T10:31:51.440Z,3.92
2024-02-14T10:34:19.648Z,3.53
2024-02-14T10:36:47.218Z,3.30
2024-02-14T10:39:17.679Z,3.30
2024-02-14T10:41:45.196Z,3.58
2024-02-14T10:44:13.775Z,3.38
2024-02-14T10:46:41.950Z,3.72
2024-02-14T10:49:10.275Z,3.78
2024-02-14T10:51:38.128Z,3.47
2024-02-14T10:54:07.149Z,5.88
2024-02-14T10:56:36.662Z,5.50
2024-02-14T10:59:05.193Z,4.68
2024-02-14T11:01:34.768Z,5.40
2024-02-14T11:04:02.908Z,4.18
2024-02-14T11:06:31.063Z,5.10
2024-02-14T11:08:59.787Z,3.88
2024-02-14T11:11:27.793Z,4.95
2024-02-14T11:13:57.616Z,4.93
2024-02-14T11:16:29.018Z,5.05
2024-02-14T11:19:07.764Z,6.03
2024-02-14T11:21:37.585Z,5.78
2024-02-14T11:24:09.444Z,4.30
2024-02-14T11:26:48.606Z,4.95
2024-02-14T11:29:20.503Z,4.07
2024-02-14T11:31:51.206Z,4.57
2024-02-14T11:34:19.062Z,4.28
2024-02-14T11:36:47.351Z,4.90
2024-02-14T11:39:19.854Z,4.82
2024-02-14T11:41:47.368Z,4.90
2024-02-14T11:44:14.937Z,7.25
2024-02-14T11:46:44.118Z,6.65
2024-02-14T11:49:12.686Z,5.70
2024-02-14T11:51:42.354Z,5.65
2024-02-14T11:54:10.988Z,6.22
2024-02-14T11:56:41.674Z,6.55
2024-02-14T11:59:10.901Z,4.50
2024-02-14T12:01:39.405Z,6.30
2024-02-14T12:04:09.948Z,6.57
2024-02-14T12:06:38.905Z,6.88
2024-02-14T12:09:07.425Z,7.50
2024-02-14T12:11:35.294Z,6.35
2024-02-14T12:14:03.588Z,7.18
2024-02-14T12:16:33.129Z,6.78
2024-02-14T12:19:10.949Z,5.40
2024-02-14T12:21:39.520Z,5.97
2024-02-14T12:24:08.977Z,5.53
2024-02-14T12:26:37.046Z,6.40
2024-02-14T12:29:14.289Z,7.50
2024-02-14T12:31:43.626Z,9.43
2024-02-14T12:34:25.287Z,8.73
2024-02-14T12:36:54.158Z,9.98
2024-02-14T12:39:21.797Z,11.07
2024-02-14T12:41:49.716Z,8.82
2024-02-14T12:44:17.274Z,9.02
2024-02-14T12:46:44.755Z,13.52
2024-02-14T12:49:12.504Z,12.50
2024-02-14T12:51:41.662Z,11.70
2024-02-14T12:54:11.257Z,11.55
2024-02-14T12:56:40.295Z,11.70
2024-02-14T12:59:09.009Z,11.02
2024-02-14T13:01:39.297Z,11.77
2024-02-14T13:04:08.815Z,10.65
2024-02-14T13:06:36.551Z,10.27
2024-02-14T13:09:09.380Z,11.80
2024-02-14T13:11:36.936Z,11.52
2024-02-14T13:14:05.228Z,10.27
2024-02-14T13:16:32.901Z,12.02
2024-02-14T13:19:00.519Z,12.68
2024-02-14T13:21:28.163Z,9.93
2024-02-14T13:23:58.131Z,11.38
2024-02-14T13:26:28.114Z,10.98
2024-02-14T13:28:56.617Z,10.55
2024-02-14T13:31:27.146Z,10.90
2024-02-14T13:33:54.733Z,9.20
2024-02-14T13:36:24.555Z,10.40
2024-02-14T13:38:52.109Z,11.57
2024-02-14T13:41:21.585Z,8.85
2024-02-14T13:43:50.674Z,7.97
2024-02-14T13:46:19.073Z,9.25
2024-02-14T13:48:48.781Z,8.82
2024-02-14T13:51:16.741Z,11.57
2024-02-14T13:53:44.578Z,9.25
2024-02-14T13:56:12.318Z,10.13
2024-02-14T13:58:40.432Z,10.68
2024-02-14T14:01:09.464Z,9.70
2024-02-14T14:03:37.852Z,12.85
2024-02-14T14:06:08.933Z,10.02
2024-02-14T14:08:37.674Z,10.00
2024-02-14T14:11:05.447Z,10.45
2024-02-14T14:13:34.914Z,8.32
2024-02-14T14:16:06.479Z,9.65
2024-02-14T14:18:38.412Z,10.10
2024-02-14T14:21:18.070Z,7.15
2024-02-14T14:23:48.554Z,7.10
2024-02-14T14:26:20.050Z,7.55
2024-02-14T14:28:53.697Z,8.85
2024-02-14T14:31:35.589Z,6.97
2024-02-14T14:34:05.419Z,7.10
2024-02-14T14:36:34.275Z,7.40
2024-02-14T14:39:08.139Z,7.25
2024-02-14T14:41:36.940Z,10.30
2024-02-14T14:44:07.905Z,8.45
2024-02-14T14:46:43.203Z,8.40
2024-02-14T14:49:13.523Z,9.30
2024-02-14T14:51:42.093Z,8.23
2024-02-14T14:54:13.523Z,8.50
2024-02-14T14:56:41.860Z,8.50
2024-02-14T14:59:16.433Z,9.45
2024-02-14T15:01:47.503Z,13.27
2024-02-14T15:04:24.870Z,9.63
2024-02-14T15:07:01.718Z,9.00
2024-02-14T15:09:31.131Z,8.00
2024-02-14T15:11:59.957Z,8.90
2024-02-14T15:14:32.023Z,8.35
2024-02-14T15:17:02.269Z,7.10
2024-02-14T15:19:34.941Z,7.00
2024-02-14T15:22:06.209Z,9.45
2024-02-14T15:24:37.530Z,8.98
2024-02-14T15:27:08.536Z,7.57
2024-02-14T15:29:53.791Z,7.53
2024-02-14T15:32:38.742Z,7.50
2024-02-14T15:35:09.987Z,6.60
2024-02-14T15:37:46.956Z,7.13
2024-02-14T15:40:15.159Z,8.27
2024-02-14T15:42:45.265Z,6.47
2024-02-14T15:45:17.027Z,33.33
2024-02-14T15:47:48.041Z,29.90
2024-02-14T15:50:18.002Z,27.30
2024-02-14T15:52:46.071Z,24.88
2024-02-14T15:55:14.645Z,11.77
2024-02-14T15:57:43.717Z,19.30
2024-02-14T16:00:22.231Z,14.02
2024-02-14T16:02:50.227Z,16.23
2024-02-14T16:05:20.340Z,18.42
2024-02-14T16:07:48.507Z,8.90
2024-02-14T16:10:16.679Z,12.77
2024-02-14T16:12:48.648Z,12.07
2024-02-14T16:15:20.145Z,12.73
2024-02-14T16:17:53.647Z,12.70
2024-02-14T16:20:23.927Z,16.73
2024-02-14T16:22:55.784Z,15.13
2024-02-14T16:25:31.971Z,14.65
2024-02-14T16:28:03.266Z,16.05
2024-02-14T16:30:34.339Z,14.45
2024-02-14T16:33:04.801Z,11.93
2024-02-14T16:35:35.961Z,11.55
2024-02-14T16:38:08.117Z,11.82
2024-02-14T16:40:36.317Z,13.25
2024-02-14T16:43:11.458Z,12.43
2024-02-14T16:45:39.993Z,11.40
2024-02-14T16:48:08.915Z,11.88
2024-02-14T16:50:38.747Z,12.90
2024-02-14T16:53:07.087Z,12.68
2024-02-14T16:55:34.732Z,12.90
2024-02-14T16:58:02.862Z,14.23
2024-02-14T17:00:33.449Z,13.43
2024-02-14T17:03:11.385Z,12.45
2024-02-14T17:05:48.809Z,13.45
2024-02-14T17:08:16.714Z,13.63
2024-02-14T17:10:44.911Z,14.38
2024-02-14T17:13:19.603Z,11.85
2024-02-14T17:15:48.763Z,12.82
2024-02-14T17:18:17.173Z,11.15
2024-02-14T17:20:50.561Z,12.20
2024-02-14T17:23:19.007Z,10.07
2024-02-14T17:25:46.543Z,11.48
2024-02-14T17:28:14.031Z,11.25
2024-02-14T17:30:44.961Z,12.65
2024-02-14T17:33:13.824Z,9.32
2024-02-14T17:35:42.236Z,10.77
2024-02-14T17:38:11.371Z,10.13
2024-02-14T17:40:38.926Z,10.43
2024-02-14T17:43:06.592Z,11.60
2024-02-14T17:45:35.175Z,9.55
2024-02-14T17:48:02.885Z,10.85
2024-02-14T17:50:30.744Z,12.35
2024-02-14T17:52:58.299Z,10.73
2024-02-14T17:55:27.759Z,10.75
2024-02-14T17:57:55.416Z,11.18
2024-02-14T18:00:24.024Z,9.05
2024-02-14T18:02:52.758Z,12.57
2024-02-14T18:05:21.731Z,14.93
2024-02-14T18:07:49.631Z,12.23
2024-02-14T18:10:17.298Z,12.20
2024-02-14T18:12:46.141Z,11.65
2024-02-14T18:15:13.965Z,9.18
2024-02-14T18:17:41.747Z,11.65
2024-02-14T18:20:09.804Z,11.90
2024-02-14T18:22:37.296Z,12.45
2024-02-14T18:25:05.908Z,12.38
2024-02-14T18:27:33.433Z,12.35
2024-02-14T18:30:02.569Z,10.77
2024-02-14T18:32:30.194Z,11.63
2024-02-14T18:34:57.928Z,8.98
2024-02-14T18:37:25.785Z,10.23
2024-02-14T18:39:54.924Z,11.10
2024-02-14T18:42:22.439Z,12.93
2024-02-14T18:44:49.968Z,13.05
2024-02-14T18:47:18.913Z,13.35
2024-02-14T18:49:47.110Z,11.73
2024-02-14T18:52:14.803Z,12.43
2024-02-14T18:54:42.400Z,14.77
2024-02-14T18:57:10.631Z,15.02
2024-02-14T18:59:38.566Z,12.90
2024-02-14T19:02:06.037Z,14.93
2024-02-14T19:04:35.132Z,15.95
2024-02-14T19:07:02.768Z,15.00
2024-02-14T19:09:32.637Z,15.93
2024-02-14T19:12:00.253Z,17.02
2024-02-14T19:14:27.875Z,18.95
2024-02-14T19:16:55.293Z,18.00
2024-02-14T19:19:22.899Z,16.98
2024-02-14T19:21:51.837Z,19.00
2024-02-14T19:24:19.389Z,17.25
2024-02-14T19:26:47.053Z,20.50
2024-02-14T19:29:14.579Z,22.90
2024-02-14T19:31:42.144Z,18.75
2024-02-14T19:34:09.731Z,17.60
2024-02-14T19:36:37.260Z,19.05
2024-02-14T19:39:07.562Z,15.50
2024-02-14T19:41:37.270Z,17.85
2024-02-14T19:44:05.046Z,19.23
2024-02-14T19:46:33.696Z,16.83
2024-02-14T19:49:01.514Z,18.02
2024-02-14T19:51:31.086Z,17.35
2024-02-14T19:53:58.632Z,18.67
2024-02-14T19:56:29.243Z,18.98
2024-02-14T19:58:56.814Z,19.45
2024-02-14T20:01:24.731Z,19.75
2024-02-14T20:03:52.853Z,18.83
2024-02-14T20:06:20.431Z,18.83
2024-02-14T20:08:47.942Z,20.98
2024-02-14T20:11:15.555Z,21.08
2024-02-14T20:13:45.243Z,20.10
2024-02-14T20:16:14.357Z,19.73
2024-02-14T20:18:42.118Z,19.08
2024-02-14T20:21:09.765Z,19.65
2024-02-14T20:23:37.367Z,20.42
2024-02-14T20:26:06.005Z,20.13
2024-02-14T20:28:33.480Z,18.27
2024-02-14T20:31:02.449Z,22.70
2024-02-14T20:35:57.616Z,21.50
2024-02-14T20:38:25.170Z,30.77
2024-02-14T20:40:52.812Z,27.92
2024-02-14T20:43:22.062Z,24.80
2024-02-14T20:45:49.678Z,23.38
2024-02-14T20:48:18.790Z,24.05
2024-02-14T20:50:46.580Z,21.90
2024-02-14T20:53:14.027Z,20.45
2024-02-14T20:55:41.438Z,21.25
2024-02-14T20:58:08.796Z,20.15
2024-02-14T21:00:36.418Z,33.17
2024-02-14T21:03:04.349Z,50.58
2024-02-14T21:05:33.310Z,25.08
2024-02-14T21:08:00.817Z,25.45
2024-02-14T21:10:28.980Z,21.77
2024-02-14T21:12:56.563Z,24.45
2024-02-14T21:15:25.888Z,21.95
2024-02-14T21:17:54.585Z,23.20
2024-02-14T21:20:22.185Z,21.67
2024-02-14T21:22:51.030Z,21.02
2024-02-14T21:25:18.514Z,20.67
2024-02-14T21:27:46.720Z,21.38
2024-02-14T21:30:14.782Z,23.50
2024-02-14T21:32:42.316Z,23.17
2024-02-14T21:35:12.223Z,22.40
2024-02-14T21:37:39.860Z,19.80
2024-02-14T21:40:11.732Z,21.85
2024-02-14T21:42:40.441Z,22.05
2024-02-14T21:45:08.722Z,21.50
2024-02-14T21:47:37.162Z,20.67
2024-02-14T21:50:04.944Z,22.83
2024-02-14T21:52:32.656Z,25.10
2024-02-14T21:55:00.343Z,23.67
2024-02-14T21:57:29.469Z,27.73
2024-02-14T21:59:57.305Z,21.08
2024-02-14T22:02:24.882Z,22.65
2024-02-14T22:04:52.879Z,18.10
2024-02-14T22:07:21.072Z,22.42
2024-02-14T22:09:49.638Z,22.35
2024-02-14T22:12:17.199Z,23.15
2024-02-14T22:14:48.342Z,21.08
2024-02-14T22:17:18.316Z,24.30
2024-02-14T22:19:45.920Z,22.63
2024-02-14T22:22:19.248Z,21.92
2024-02-14T22:24:47.197Z,20.55
2024-02-14T22:27:14.741Z,23.00
2024-02-14T22:29:42.403Z,23.23
2024-02-14T22:32:13.397Z,21.23
2024-02-14T22:34:41.155Z,23.00
2024-02-14T22:37:08.650Z,19.23
2024-02-14T22:39:36.191Z,21.73
2024-02-14T22:42:04.815Z,21.27
2024-02-14T22:44:32.428Z,21.17
2024-02-14T22:46:59.945Z,25.13
2024-02-14T22:49:28.823Z,23.73
2024-02-14T22:51:56.736Z,23.88
2024-02-14T22:54:24.269Z,22.98
2024-02-14T22:56:52.495Z,23.65
2024-02-14T22:59:20.351Z,20.65
2024-02-14T23:01:47.903Z,22.70
2024-02-14T23:04:15.511Z,23.13
2024-02-14T23:06:44.543Z,19.80
2024-02-14T23:09:12.381Z,19.58
2024-02-14T23:11:39.907Z,23.15
2024-02-14T23:14:07.468Z,19.08
2024-02-14T23:16:37.202Z,23.17
2024-02-14T23:19:05.271Z,20.33
2024-02-14T23:21:33.047Z,20.15
2024-02-14T23:24:01.860Z,21.90
2024-02-14T23:26:29.413Z,20.27
2024-02-14T23:28:59.322Z,21.42
2024-02-14T23:31:28.747Z,23.77
2024-02-14T23:33:57.363Z,20.02
2024-02-14T23:36:27.528Z,15.93
2024-02-14T23:38:55.152Z,20.20
2024-02-14T23:41:24.886Z,20.25
2024-02-14T23:43:53.830Z,21.45
2024-02-14T23:46:21.280Z,18.45
2024-02-14T23:48:49.586Z,19.08
2024-02-14T23:51:19.545Z,18.52
2024-02-14T23:53:48.656Z,16.63
2024-02-14T23:56:17.148Z,20.02
2024-02-14T23:58:46.425Z,21.85
